sensor_id;sensor_type;location;lat;lon;timestamp;P1;durP1;ratioP1;P2;durP2;ratioP2
28802;SDS011;15949;55.656;37.422;2023-04-25T00:00:09;14.93;;;7.68;;
28802;SDS011;15949;55.656;37.422;2023-04-25T00:05:15;13.82;;;6.38;;
28802;SDS011;15949;55.656;37.422;2023-04-25T00:10:21;19.05;;;6.15;;
28802;SDS011;15949;55.656;37.422;2023-04-25T00:15:26;21.70;;;6.65;;
28802;SDS011;15949;55.656;37.422;2023-04-25T00:20:32;17.80;;;6.22;;
28802;SDS011;15949;55.656;37.422;2023-04-25T00:25:38;11.93;;;6.25;;
28802;SDS011;15949;55.656;37.422;2023-04-25T00:30:43;10.60;;;5.53;;
28802;SDS011;15949;55.656;37.422;2023-04-25T00:35:49;11.57;;;5.78;;
28802;SDS011;15949;55.656;37.422;2023-04-25T00:40:55;13.70;;;5.45;;
28802;SDS011;15949;55.656;37.422;2023-04-25T00:46:00;14.40;;;5.55;;
28802;SDS011;15949;55.656;37.422;2023-04-25T00:51:06;13.13;;;5.55;;
28802;SDS011;15949;55.656;37.422;2023-04-25T00:56:12;13.02;;;5.45;;
28802;SDS011;15949;55.656;37.422;2023-04-25T01:01:17;17.52;;;5.28;;
28802;SDS011;15949;55.656;37.422;2023-04-25T01:06:23;19.45;;;5.60;;
28802;SDS011;15949;55.656;37.422;2023-04-25T01:11:28;14.68;;;5.88;;
28802;SDS011;15949;55.656;37.422;2023-04-25T01:16:34;13.55;;;5.50;;
28802;SDS011;15949;55.656;37.422;2023-04-25T01:21:41;12.70;;;5.50;;
28802;SDS011;15949;55.656;37.422;2023-04-25T01:26:47;16.33;;;6.15;;
28802;SDS011;15949;55.656;37.422;2023-04-25T01:31:55;15.70;;;6.63;;
28802;SDS011;15949;55.656;37.422;2023-04-25T01:37:03;14.00;;;6.50;;
28802;SDS011;15949;55.656;37.422;2023-04-25T01:42:09;17.88;;;6.40;;
28802;SDS011;15949;55.656;37.422;2023-04-25T01:47:14;21.13;;;7.40;;
28802;SDS011;15949;55.656;37.422;2023-04-25T01:52:20;18.17;;;7.00;;
28802;SDS011;15949;55.656;37.422;2023-04-25T01:57:26;19.40;;;8.40;;
28802;SDS011;15949;55.656;37.422;2023-04-25T02:02:31;15.68;;;8.10;;
28802;SDS011;15949;55.656;37.422;2023-04-25T02:07:37;20.98;;;8.52;;
28802;SDS011;15949;55.656;37.422;2023-04-25T02:12:43;17.15;;;8.82;;
28802;SDS011;15949;55.656;37.422;2023-04-25T02:17:48;16.48;;;8.30;;
28802;SDS011;15949;55.656;37.422;2023-04-25T02:22:54;19.50;;;7.50;;
28802;SDS011;15949;55.656;37.422;2023-04-25T02:27:59;14.23;;;7.00;;
28802;SDS011;15949;55.656;37.422;2023-04-25T02:33:05;16.45;;;7.20;;
28802;SDS011;15949;55.656;37.422;2023-04-25T02:38:11;12.23;;;6.43;;
28802;SDS011;15949;55.656;37.422;2023-04-25T02:43:16;17.00;;;6.35;;
28802;SDS011;15949;55.656;37.422;2023-04-25T02:48:22;15.23;;;5.70;;
28802;SDS011;15949;55.656;37.422;2023-04-25T02:53:27;16.33;;;6.50;;
28802;SDS011;15949;55.656;37.422;2023-04-25T02:58:33;16.92;;;6.50;;
28802;SDS011;15949;55.656;37.422;2023-04-25T03:03:38;17.38;;;6.55;;
28802;SDS011;15949;55.656;37.422;2023-04-25T03:08:44;19.05;;;7.00;;
28802;SDS011;15949;55.656;37.422;2023-04-25T03:13:50;15.02;;;7.22;;
28802;SDS011;15949;55.656;37.422;2023-04-25T03:18:55;22.15;;;7.68;;
28802;SDS011;15949;55.656;37.422;2023-04-25T03:24:02;17.30;;;7.00;;
28802;SDS011;15949;55.656;37.422;2023-04-25T03:29:08;14.95;;;7.95;;
28802;SDS011;15949;55.656;37.422;2023-04-25T03:34:14;17.08;;;8.20;;
28802;SDS011;15949;55.656;37.422;2023-04-25T03:39:20;17.77;;;8.73;;
28802;SDS011;15949;55.656;37.422;2023-04-25T03:44:26;16.77;;;7.63;;
28802;SDS011;15949;55.656;37.422;2023-04-25T03:49:32;26.40;;;9.30;;
28802;SDS011;15949;55.656;37.422;2023-04-25T03:54:38;18.00;;;8.25;;
28802;SDS011;15949;55.656;37.422;2023-04-25T03:59:43;19.80;;;8.68;;
28802;SDS011;15949;55.656;37.422;2023-04-25T04:04:49;23.85;;;8.45;;
28802;SDS011;15949;55.656;37.422;2023-04-25T04:09:55;20.58;;;8.80;;
28802;SDS011;15949;55.656;37.422;2023-04-25T04:15:01;14.43;;;7.90;;
28802;SDS011;15949;55.656;37.422;2023-04-25T04:20:08;19.88;;;8.40;;
28802;SDS011;15949;55.656;37.422;2023-04-25T04:25:14;16.83;;;8.40;;
28802;SDS011;15949;55.656;37.422;2023-04-25T04:30:23;18.90;;;8.43;;
28802;SDS011;15949;55.656;37.422;2023-04-25T04:35:29;19.00;;;8.70;;
28802;SDS011;15949;55.656;37.422;2023-04-25T04:40:35;23.73;;;8.57;;
28802;SDS011;15949;55.656;37.422;2023-04-25T04:45:40;20.65;;;8.32;;
28802;SDS011;15949;55.656;37.422;2023-04-25T04:50:46;18.85;;;8.13;;
28802;SDS011;15949;55.656;37.422;2023-04-25T04:55:51;14.32;;;8.38;;
28802;SDS011;15949;55.656;37.422;2023-04-25T05:00:57;16.15;;;8.50;;
28802;SDS011;15949;55.656;37.422;2023-04-25T05:06:03;18.58;;;8.73;;
28802;SDS011;15949;55.656;37.422;2023-04-25T05:11:09;20.27;;;8.50;;
28802;SDS011;15949;55.656;37.422;2023-04-25T05:16:15;12.23;;;7.55;;
28802;SDS011;15949;55.656;37.422;2023-04-25T05:21:20;17.20;;;8.00;;
28802;SDS011;15949;55.656;37.422;2023-04-25T05:26:26;22.02;;;8.40;;
28802;SDS011;15949;55.656;37.422;2023-04-25T05:31:36;19.33;;;8.23;;
28802;SDS011;15949;55.656;37.422;2023-04-25T05:36:41;16.58;;;7.85;;
28802;SDS011;15949;55.656;37.422;2023-04-25T05:41:47;20.65;;;7.28;;
28802;SDS011;15949;55.656;37.422;2023-04-25T05:46:53;19.33;;;6.50;;
28802;SDS011;15949;55.656;37.422;2023-04-25T05:51:58;21.95;;;7.05;;
28802;SDS011;15949;55.656;37.422;2023-04-25T05:57:04;14.30;;;7.03;;
28802;SDS011;15949;55.656;37.422;2023-04-25T06:02:09;17.20;;;5.90;;
28802;SDS011;15949;55.656;37.422;2023-04-25T06:07:15;17.92;;;5.88;;
28802;SDS011;15949;55.656;37.422;2023-04-25T06:12:21;12.10;;;5.50;;
28802;SDS011;15949;55.656;37.422;2023-04-25T06:17:27;17.48;;;6.07;;
28802;SDS011;15949;55.656;37.422;2023-04-25T06:22:32;16.70;;;6.03;;
28802;SDS011;15949;55.656;37.422;2023-04-25T06:27:38;14.25;;;6.20;;
28802;SDS011;15949;55.656;37.422;2023-04-25T06:32:43;16.20;;;4.97;;
28802;SDS011;15949;55.656;37.422;2023-04-25T06:37:49;14.95;;;5.95;;
28802;SDS011;15949;55.656;37.422;2023-04-25T06:42:55;14.48;;;4.90;;
28802;SDS011;15949;55.656;37.422;2023-04-25T06:48:00;13.15;;;5.60;;
28802;SDS011;15949;55.656;37.422;2023-04-25T06:53:06;15.73;;;4.82;;
28802;SDS011;15949;55.656;37.422;2023-04-25T06:58:13;15.07;;;5.15;;
28802;SDS011;15949;55.656;37.422;2023-04-25T07:03:19;10.13;;;4.50;;
28802;SDS011;15949;55.656;37.422;2023-04-25T07:08:25;8.45;;;4.20;;
28802;SDS011;15949;55.656;37.422;2023-04-25T07:13:31;9.30;;;4.18;;
28802;SDS011;15949;55.656;37.422;2023-04-25T07:18:36;10.85;;;4.05;;
28802;SDS011;15949;55.656;37.422;2023-04-25T07:23:42;8.40;;;3.90;;
28802;SDS011;15949;55.656;37.422;2023-04-25T07:28:48;11.93;;;3.63;;
28802;SDS011;15949;55.656;37.422;2023-04-25T07:33:55;6.25;;;3.58;;
28802;SDS011;15949;55.656;37.422;2023-04-25T07:39:01;12.23;;;4.38;;
28802;SDS011;15949;55.656;37.422;2023-04-25T07:44:06;14.57;;;4.05;;
28802;SDS011;15949;55.656;37.422;2023-04-25T07:49:12;10.50;;;4.05;;
28802;SDS011;15949;55.656;37.422;2023-04-25T07:54:18;10.80;;;4.50;;
28802;SDS011;15949;55.656;37.422;2023-04-25T07:59:24;8.70;;;4.95;;
28802;SDS011;15949;55.656;37.422;2023-04-25T08:04:29;18.02;;;5.07;;
28802;SDS011;15949;55.656;37.422;2023-04-25T08:09:35;12.75;;;3.97;;
28802;SDS011;15949;55.656;37.422;2023-04-25T08:14:41;18.40;;;4.90;;
28802;SDS011;15949;55.656;37.422;2023-04-25T08:19:47;10.38;;;4.60;;
28802;SDS011;15949;55.656;37.422;2023-04-25T08:24:53;12.90;;;4.65;;
28802;SDS011;15949;55.656;37.422;2023-04-25T08:29:58;12.82;;;3.88;;
28802;SDS011;15949;55.656;37.422;2023-04-25T08:35:04;10.98;;;3.53;;
28802;SDS011;15949;55.656;37.422;2023-04-25T08:40:11;9.55;;;3.95;;
28802;SDS011;15949;55.656;37.422;2023-04-25T08:45:19;9.90;;;3.58;;
28802;SDS011;15949;55.656;37.422;2023-04-25T08:50:25;8.75;;;3.90;;
28802;SDS011;15949;55.656;37.422;2023-04-25T08:55:31;11.07;;;4.00;;
28802;SDS011;15949;55.656;37.422;2023-04-25T09:00:37;9.77;;;3.65;;
28802;SDS011;15949;55.656;37.422;2023-04-25T09:05:43;9.63;;;3.58;;
28802;SDS011;15949;55.656;37.422;2023-04-25T09:10:48;7.60;;;3.75;;
28802;SDS011;15949;55.656;37.422;2023-04-25T09:15:55;13.10;;;4.20;;
28802;SDS011;15949;55.656;37.422;2023-04-25T09:21:05;8.07;;;3.25;;
28802;SDS011;15949;55.656;37.422;2023-04-25T09:26:18;15.40;;;4.15;;
28802;SDS011;15949;55.656;37.422;2023-04-25T09:31:25;16.40;;;4.00;;
28802;SDS011;15949;55.656;37.422;2023-04-25T09:36:31;7.43;;;3.78;;
28802;SDS011;15949;55.656;37.422;2023-04-25T09:41:39;16.95;;;4.22;;
28802;SDS011;15949;55.656;37.422;2023-04-25T09:46:46;8.82;;;3.42;;
28802;SDS011;15949;55.656;37.422;2023-04-25T09:51:58;8.77;;;2.90;;
28802;SDS011;15949;55.656;37.422;2023-04-25T09:57:12;8.25;;;3.05;;
28802;SDS011;15949;55.656;37.422;2023-04-25T10:02:25;7.13;;;3.20;;
28802;SDS011;15949;55.656;37.422;2023-04-25T10:07:32;8.50;;;3.75;;
28802;SDS011;15949;55.656;37.422;2023-04-25T10:12:43;11.05;;;4.03;;
28802;SDS011;15949;55.656;37.422;2023-04-25T10:17:49;10.27;;;3.67;;
28802;SDS011;15949;55.656;37.422;2023-04-25T10:22:57;5.72;;;3.05;;
28802;SDS011;15949;55.656;37.422;2023-04-25T10:28:10;13.68;;;3.25;;
28802;SDS011;15949;55.656;37.422;2023-04-25T10:33:18;12.25;;;3.40;;
28802;SDS011;15949;55.656;37.422;2023-04-25T10:38:34;19.35;;;3.50;;
28802;SDS011;15949;55.656;37.422;2023-04-25T10:43:40;7.07;;;2.78;;
28802;SDS011;15949;55.656;37.422;2023-04-25T10:54:01;6.47;;;2.80;;
28802;SDS011;15949;55.656;37.422;2023-04-25T10:59:09;6.72;;;3.33;;
28802;SDS011;15949;55.656;37.422;2023-04-25T11:04:29;8.57;;;2.80;;
28802;SDS011;15949;55.656;37.422;2023-04-25T11:09:38;6.93;;;2.80;;
28802;SDS011;15949;55.656;37.422;2023-04-25T11:14:45;4.53;;;2.90;;
28802;SDS011;15949;55.656;37.422;2023-04-25T11:19:51;10.68;;;2.92;;
28802;SDS011;15949;55.656;37.422;2023-04-25T11:24:56;5.72;;;3.10;;
28802;SDS011;15949;55.656;37.422;2023-04-25T11:30:14;5.85;;;2.85;;
28802;SDS011;15949;55.656;37.422;2023-04-25T11:35:23;5.32;;;2.72;;
28802;SDS011;15949;55.656;37.422;2023-04-25T11:40:30;11.05;;;2.60;;
28802;SDS011;15949;55.656;37.422;2023-04-25T11:45:37;9.48;;;2.20;;
28802;SDS011;15949;55.656;37.422;2023-04-25T11:50:42;7.78;;;2.33;;
28802;SDS011;15949;55.656;37.422;2023-04-25T11:55:48;5.22;;;2.40;;
28802;SDS011;15949;55.656;37.422;2023-04-25T12:00:53;7.05;;;2.47;;
28802;SDS011;15949;55.656;37.422;2023-04-25T12:06:02;4.80;;;2.40;;
28802;SDS011;15949;55.656;37.422;2023-04-25T12:11:19;6.68;;;1.95;;
28802;SDS011;15949;55.656;37.422;2023-04-25T12:16:26;7.45;;;2.10;;
28802;SDS011;15949;55.656;37.422;2023-04-25T12:21:32;3.45;;;1.88;;
28802;SDS011;15949;55.656;37.422;2023-04-25T12:26:50;8.82;;;2.10;;
28802;SDS011;15949;55.656;37.422;2023-04-25T12:37:02;5.28;;;2.28;;
28802;SDS011;15949;55.656;37.422;2023-04-25T12:42:10;4.32;;;2.30;;
28802;SDS011;15949;55.656;37.422;2023-04-25T12:47:18;6.32;;;2.30;;
28802;SDS011;15949;55.656;37.422;2023-04-25T12:52:24;8.80;;;2.28;;
28802;SDS011;15949;55.656;37.422;2023-04-25T12:57:29;7.05;;;2.25;;
28802;SDS011;15949;55.656;37.422;2023-04-25T13:02:35;10.07;;;2.20;;
28802;SDS011;15949;55.656;37.422;2023-04-25T13:07:40;8.68;;;2.30;;
28802;SDS011;15949;55.656;37.422;2023-04-25T13:12:46;10.13;;;2.20;;
28802;SDS011;15949;55.656;37.422;2023-04-25T13:17:52;9.68;;;2.50;;
28802;SDS011;15949;55.656;37.422;2023-04-25T13:22:57;10.50;;;2.40;;
28802;SDS011;15949;55.656;37.422;2023-04-25T13:28:03;6.35;;;2.13;;
28802;SDS011;15949;55.656;37.422;2023-04-25T13:33:09;5.70;;;2.42;;
28802;SDS011;15949;55.656;37.422;2023-04-25T13:38:15;6.20;;;2.42;;
28802;SDS011;15949;55.656;37.422;2023-04-25T13:43:21;4.30;;;2.47;;
28802;SDS011;15949;55.656;37.422;2023-04-25T13:48:27;7.25;;;2.72;;
28802;SDS011;15949;55.656;37.422;2023-04-25T13:53:32;7.40;;;2.40;;
28802;SDS011;15949;55.656;37.422;2023-04-25T13:58:38;10.02;;;3.00;;
28802;SDS011;15949;55.656;37.422;2023-04-25T14:03:44;7.85;;;2.60;;
28802;SDS011;15949;55.656;37.422;2023-04-25T14:08:50;6.60;;;2.63;;
28802;SDS011;15949;55.656;37.422;2023-04-25T14:13:56;7.80;;;2.70;;
28802;SDS011;15949;55.656;37.422;2023-04-25T14:19:01;7.80;;;2.53;;
28802;SDS011;15949;55.656;37.422;2023-04-25T14:24:08;8.60;;;2.70;;
28802;SDS011;15949;55.656;37.422;2023-04-25T14:29:14;12.38;;;2.90;;
28802;SDS011;15949;55.656;37.422;2023-04-25T14:34:19;7.43;;;2.80;;
28802;SDS011;15949;55.656;37.422;2023-04-25T14:39:25;10.23;;;2.70;;
28802;SDS011;15949;55.656;37.422;2023-04-25T14:44:31;8.98;;;2.92;;
28802;SDS011;15949;55.656;37.422;2023-04-25T14:49:36;5.45;;;2.60;;
28802;SDS011;15949;55.656;37.422;2023-04-25T14:54:42;6.57;;;2.50;;
28802;SDS011;15949;55.656;37.422;2023-04-25T14:59:47;4.47;;;2.65;;
28802;SDS011;15949;55.656;37.422;2023-04-25T15:04:53;6.85;;;2.55;;
28802;SDS011;15949;55.656;37.422;2023-04-25T15:10:00;8.40;;;2.65;;
28802;SDS011;15949;55.656;37.422;2023-04-25T15:15:06;6.35;;;2.70;;
28802;SDS011;15949;55.656;37.422;2023-04-25T15:20:16;8.50;;;2.50;;
28802;SDS011;15949;55.656;37.422;2023-04-25T15:25:22;5.65;;;2.65;;
28802;SDS011;15949;55.656;37.422;2023-04-25T15:30:27;8.55;;;3.20;;
28802;SDS011;15949;55.656;37.422;2023-04-25T15:35:33;10.80;;;3.72;;
28802;SDS011;15949;55.656;37.422;2023-04-25T15:40:39;7.28;;;3.30;;
28802;SDS011;15949;55.656;37.422;2023-04-25T15:45:45;11.68;;;3.67;;
28802;SDS011;15949;55.656;37.422;2023-04-25T15:50:51;13.38;;;3.85;;
28802;SDS011;15949;55.656;37.422;2023-04-25T15:55:56;10.32;;;3.97;;
28802;SDS011;15949;55.656;37.422;2023-04-25T16:01:02;8.50;;;4.00;;
28802;SDS011;15949;55.656;37.422;2023-04-25T16:06:09;8.27;;;3.88;;
28802;SDS011;15949;55.656;37.422;2023-04-25T16:11:15;9.18;;;4.18;;
28802;SDS011;15949;55.656;37.422;2023-04-25T16:16:20;9.43;;;3.75;;
28802;SDS011;15949;55.656;37.422;2023-04-25T16:21:26;16.08;;;3.95;;
28802;SDS011;15949;55.656;37.422;2023-04-25T16:26:33;9.65;;;4.15;;
28802;SDS011;15949;55.656;37.422;2023-04-25T16:31:38;11.88;;;3.67;;
28802;SDS011;15949;55.656;37.422;2023-04-25T16:36:44;9.43;;;4.13;;
28802;SDS011;15949;55.656;37.422;2023-04-25T16:41:49;12.15;;;4.43;;
28802;SDS011;15949;55.656;37.422;2023-04-25T16:46:56;11.88;;;4.00;;
28802;SDS011;15949;55.656;37.422;2023-04-25T16:52:01;9.57;;;4.03;;
28802;SDS011;15949;55.656;37.422;2023-04-25T16:57:07;9.07;;;4.00;;
28802;SDS011;15949;55.656;37.422;2023-04-25T17:02:15;11.20;;;3.63;;
28802;SDS011;15949;55.656;37.422;2023-04-25T17:07:21;12.23;;;4.20;;
28802;SDS011;15949;55.656;37.422;2023-04-25T17:12:28;11.60;;;5.10;;
28802;SDS011;15949;55.656;37.422;2023-04-25T17:17:34;14.10;;;4.15;;
28802;SDS011;15949;55.656;37.422;2023-04-25T17:22:40;11.55;;;4.20;;
28802;SDS011;15949;55.656;37.422;2023-04-25T17:27:46;21.40;;;10.48;;
28802;SDS011;15949;55.656;37.422;2023-04-25T17:32:51;16.58;;;5.93;;
28802;SDS011;15949;55.656;37.422;2023-04-25T17:37:57;14.50;;;3.65;;
28802;SDS011;15949;55.656;37.422;2023-04-25T17:43:02;23.85;;;4.05;;
28802;SDS011;15949;55.656;37.422;2023-04-25T17:48:08;16.88;;;4.22;;
28802;SDS011;15949;55.656;37.422;2023-04-25T17:53:14;14.70;;;3.60;;
28802;SDS011;15949;55.656;37.422;2023-04-25T17:58:20;24.63;;;3.92;;
28802;SDS011;15949;55.656;37.422;2023-04-25T18:03:26;9.05;;;4.00;;
28802;SDS011;15949;55.656;37.422;2023-04-25T18:08:31;7.80;;;3.60;;
28802;SDS011;15949;55.656;37.422;2023-04-25T18:13:37;11.82;;;3.88;;
28802;SDS011;15949;55.656;37.422;2023-04-25T18:18:43;11.55;;;4.15;;
28802;SDS011;15949;55.656;37.422;2023-04-25T18:23:51;8.40;;;4.70;;
28802;SDS011;15949;55.656;37.422;2023-04-25T18:28:56;6.93;;;4.32;;
28802;SDS011;15949;55.656;37.422;2023-04-25T18:34:02;15.00;;;4.82;;
28802;SDS011;15949;55.656;37.422;2023-04-25T18:39:08;8.45;;;4.25;;
28802;SDS011;15949;55.656;37.422;2023-04-25T18:44:13;8.48;;;4.65;;
28802;SDS011;15949;55.656;37.422;2023-04-25T18:49:19;8.65;;;5.18;;
28802;SDS011;15949;55.656;37.422;2023-04-25T18:54:25;8.60;;;5.78;;
28802;SDS011;15949;55.656;37.422;2023-04-25T18:59:31;8.80;;;5.57;;
28802;SDS011;15949;55.656;37.422;2023-04-25T19:04:37;9.98;;;5.97;;
28802;SDS011;15949;55.656;37.422;2023-04-25T19:09:43;10.95;;;5.45;;
28802;SDS011;15949;55.656;37.422;2023-04-25T19:14:49;12.10;;;6.03;;
28802;SDS011;15949;55.656;37.422;2023-04-25T19:19:55;12.27;;;6.93;;
28802;SDS011;15949;55.656;37.422;2023-04-25T19:25:00;13.20;;;7.10;;
28802;SDS011;15949;55.656;37.422;2023-04-25T19:30:06;16.27;;;8.20;;
28802;SDS011;15949;55.656;37.422;2023-04-25T19:35:13;13.45;;;7.95;;
28802;SDS011;15949;55.656;37.422;2023-04-25T19:40:18;11.80;;;8.20;;
28802;SDS011;15949;55.656;37.422;2023-04-25T19:45:26;14.27;;;7.47;;
28802;SDS011;15949;55.656;37.422;2023-04-25T19:50:32;13.75;;;7.72;;
28802;SDS011;15949;55.656;37.422;2023-04-25T19:55:38;12.48;;;8.35;;
28802;SDS011;15949;55.656;37.422;2023-04-25T20:00:44;13.02;;;8.45;;
28802;SDS011;15949;55.656;37.422;2023-04-25T20:05:50;11.88;;;8.35;;
28802;SDS011;15949;55.656;37.422;2023-04-25T20:10:55;15.25;;;8.15;;
28802;SDS011;15949;55.656;37.422;2023-04-25T20:16:01;12.07;;;7.93;;
28802;SDS011;15949;55.656;37.422;2023-04-25T20:21:07;13.45;;;8.23;;
28802;SDS011;15949;55.656;37.422;2023-04-25T20:26:12;13.05;;;8.35;;
28802;SDS011;15949;55.656;37.422;2023-04-25T20:31:18;12.02;;;7.90;;
28802;SDS011;15949;55.656;37.422;2023-04-25T20:36:24;14.07;;;8.68;;
28802;SDS011;15949;55.656;37.422;2023-04-25T20:41:30;13.80;;;9.35;;
28802;SDS011;15949;55.656;37.422;2023-04-25T20:46:36;12.55;;;9.10;;
28802;SDS011;15949;55.656;37.422;2023-04-25T20:51:42;13.25;;;9.13;;
28802;SDS011;15949;55.656;37.422;2023-04-25T20:56:48;12.15;;;9.20;;
28802;SDS011;15949;55.656;37.422;2023-04-25T21:01:54;16.33;;;9.20;;
28802;SDS011;15949;55.656;37.422;2023-04-25T21:07:00;15.30;;;10.65;;
28802;SDS011;15949;55.656;37.422;2023-04-25T21:12:06;14.02;;;9.15;;
28802;SDS011;15949;55.656;37.422;2023-04-25T21:17:11;15.93;;;10.02;;
28802;SDS011;15949;55.656;37.422;2023-04-25T21:22:17;16.25;;;9.35;;
28802;SDS011;15949;55.656;37.422;2023-04-25T21:27:23;15.38;;;9.43;;
28802;SDS011;15949;55.656;37.422;2023-04-25T21:32:28;15.40;;;9.35;;
28802;SDS011;15949;55.656;37.422;2023-04-25T21:37:34;19.17;;;9.93;;
28802;SDS011;15949;55.656;37.422;2023-04-25T21:42:39;13.45;;;6.20;;
28802;SDS011;15949;55.656;37.422;2023-04-25T21:47:46;10.15;;;4.05;;
28802;SDS011;15949;55.656;37.422;2023-04-25T21:52:52;5.18;;;2.72;;
28802;SDS011;15949;55.656;37.422;2023-04-25T21:58:02;5.93;;;2.95;;
28802;SDS011;15949;55.656;37.422;2023-04-25T22:03:08;10.40;;;2.85;;
28802;SDS011;15949;55.656;37.422;2023-04-25T22:08:14;7.50;;;2.80;;
28802;SDS011;15949;55.656;37.422;2023-04-25T22:13:20;5.38;;;2.78;;
28802;SDS011;15949;55.656;37.422;2023-04-25T22:18:26;5.00;;;2.80;;
28802;SDS011;15949;55.656;37.422;2023-04-25T22:23:32;6.60;;;3.47;;
28802;SDS011;15949;55.656;37.422;2023-04-25T22:28:37;8.23;;;3.70;;
28802;SDS011;15949;55.656;37.422;2023-04-25T22:33:43;6.88;;;2.83;;
28802;SDS011;15949;55.656;37.422;2023-04-25T22:38:51;8.90;;;2.90;;
28802;SDS011;15949;55.656;37.422;2023-04-25T22:43:57;5.93;;;2.85;;
28802;SDS011;15949;55.656;37.422;2023-04-25T22:49:02;5.13;;;3.20;;
28802;SDS011;15949;55.656;37.422;2023-04-25T22:54:08;5.03;;;3.10;;
28802;SDS011;15949;55.656;37.422;2023-04-25T22:59:14;6.95;;;3.83;;
28802;SDS011;15949;55.656;37.422;2023-04-25T23:04:20;6.40;;;3.75;;
28802;SDS011;15949;55.656;37.422;2023-04-25T23:09:25;6.25;;;4.35;;
28802;SDS011;15949;55.656;37.422;2023-04-25T23:14:31;9.15;;;4.90;;
28802;SDS011;15949;55.656;37.422;2023-04-25T23:19:37;11.10;;;5.30;;
28802;SDS011;15949;55.656;37.422;2023-04-25T23:24:42;12.18;;;6.00;;
28802;SDS011;15949;55.656;37.422;2023-04-25T23:29:49;11.27;;;6.90;;
28802;SDS011;15949;55.656;37.422;2023-04-25T23:34:58;10.95;;;7.35;;
28802;SDS011;15949;55.656;37.422;2023-04-25T23:40:05;11.98;;;8.35;;
28802;SDS011;15949;55.656;37.422;2023-04-25T23:45:14;17.70;;;8.10;;
28802;SDS011;15949;55.656;37.422;2023-04-25T23:50:20;10.32;;;8.00;;
28802;SDS011;15949;55.656;37.422;2023-04-25T23:55:26;15.20;;;9.77;;
